Warning: Javascript must be enabled to use all the features on this page!


Page Loading - Please Wait...

Click to hideNews Bulletins
Click to hide state-specific text

Explore Real-time Water Data Using New Products from USGS TXWSC

View over 750 USGS real-time stream, lake, reservoir, precipitation, and groundwater stations in context with current weather and hazard conditions on both desktop and mobile devices.

Click to go to the Texas Water Dashboard Click to go to the WATER On-the-go app

Follow @USGS_TexasFlood and @USGS_TexasRain on Twitter to get current water level and precipitation data during flooding or severe rainfall events.


* IMPORTANT: Next Generation Station Page

USGS 08195000 Frio Rv at Concan, TX

PROVISIONAL DATA SUBJECT TO REVISION

Click to hidestation-specific text
Funding for this site is provided by the cooperators / programs below:
Click to go to the Edwards Aquifer Authority web page

Edwards Aquifer Authority

Click to go to the Cooperative Matching Funds web page

Cooperative Matching Funds

 

Rainfall Disclaimer


retransmission, forecasts and summary of this location by the National Weather Service
Retransmission, forecasts and summary by the National Weather Service
This station managed by the San Antonio Field Unit.

Available Parameters Available Period
All 6 Available Parameters for this site
  
00010 Temperature, water 2013-07-25  2019-06-26
00045 Precipitation 2019-02-26  2019-06-26
00060 Discharge 1991-10-01  2019-06-26
00065 Gage height 2007-10-01  2019-06-26
00095 Specific cond at 25C 2013-07-02  2019-06-26
99133 NO3+NO2,water,insitu 2015-09-24  2019-06-26

Graph
Graph w/ stats
Graph w/o stats
Graph w/ (up to 3) parms
Table
Tab-separated
Days  (2)
 

  -- or --
Begin date
 

End date
 

Summary of all available data for this site
Instantaneous-data availability statement






Date / Time




Gage
height,
feet,




Dis-
charge,
ft3/s,



Precip-
itation
total,
inches,
Specif-
ic
conduc-
tance,
wat unf
uS/cm @
25 degC,



Temper-
ature,
water,
deg C,

Nitrate
+
nitrite
water,
in situ
mg/L as,
06/24/2019 00:00 CDT3.78P  77.1P  0.00P  442P  28.0P  0.48P  
06/24/2019 00:05 CDT3.78P  77.1P  0.00P           
06/24/2019 00:10 CDT3.78P  77.1P  0.00P           
06/24/2019 00:15 CDT3.78P  77.1P  0.00P  442P  28.0P     
06/24/2019 00:20 CDT3.77P  74.7P  0.00P           
06/24/2019 00:25 CDT3.78P  77.1P  0.00P           
06/24/2019 00:30 CDT3.78P  77.1P  0.00P  442P  27.9P     
06/24/2019 00:35 CDT3.79P  79.5P  0.00P           
06/24/2019 00:40 CDT3.79P  79.5P  0.00P           
06/24/2019 00:45 CDT3.77P  74.7P  0.00P  442P  27.9P     
06/24/2019 00:50 CDT3.77P  74.7P  0.00P           
06/24/2019 00:55 CDT3.78P  77.1P  0.00P           
06/24/2019 01:00 CDT3.78P  77.1P  0.00P  442P  27.9P  0.48P  
06/24/2019 01:05 CDT3.78P  77.1P  0.00P           
06/24/2019 01:10 CDT3.78P  77.1P  0.00P           
06/24/2019 01:15 CDT3.78P  77.1P  0.00P  442P  27.9P     
06/24/2019 01:20 CDT3.77P  74.7P  0.00P           
06/24/2019 01:25 CDT3.78P  77.1P  0.00P           
06/24/2019 01:30 CDT3.79P  79.5P  0.00P  441P  27.8P     
06/24/2019 01:35 CDT3.77P  74.7P  0.00P           
06/24/2019 01:40 CDT3.78P  77.1P  0.00P           
06/24/2019 01:45 CDT3.79P  79.5P  0.00P  441P  27.8P     
06/24/2019 01:50 CDT3.79P  79.5P  0.00P           
06/24/2019 01:55 CDT3.77P  74.7P  0.00P           
06/24/2019 02:00 CDT3.77P  74.7P  0.00P  441P  27.8P  0.49P  
06/24/2019 02:05 CDT3.78P  77.1P  0.00P           
06/24/2019 02:10 CDT3.78P  77.1P  0.00P           
06/24/2019 02:15 CDT3.78P  77.1P  0.00P  441P  27.7P     
06/24/2019 02:20 CDT3.78P  77.1P  0.00P           
06/24/2019 02:25 CDT3.78P  77.1P  0.00P           
06/24/2019 02:30 CDT3.78P  77.1P  0.00P  441P  27.7P     
06/24/2019 02:35 CDT3.79P  79.5P  0.00P           
06/24/2019 02:40 CDT3.77P  74.7P  0.00P           
06/24/2019 02:45 CDT3.77P  74.7P  0.00P  441P  27.6P     
06/24/2019 02:50 CDT3.79P  79.5P  0.00P           
06/24/2019 02:55 CDT3.79P  79.5P  0.00P           
06/24/2019 03:00 CDT3.79P  79.5P  0.00P  441P  27.6P  0.50P  
06/24/2019 03:05 CDT3.79P  79.5P  0.00P           
06/24/2019 03:10 CDT3.78P  77.1P  0.00P           
06/24/2019 03:15 CDT3.79P  79.5P  0.00P  440P  27.5P     
06/24/2019 03:20 CDT3.78P  77.1P  0.00P           
06/24/2019 03:25 CDT3.79P  79.5P  0.00P           
06/24/2019 03:30 CDT3.77P  74.7P  0.00P  440P  27.5P     
06/24/2019 03:35 CDT3.78P  77.1P  0.00P           
06/24/2019 03:40 CDT3.78P  77.1P  0.00P           
06/24/2019 03:45 CDT3.78P  77.1P  0.00P  441P  27.4P     
06/24/2019 03:50 CDT3.78P  77.1P  0.00P           
06/24/2019 03:55 CDT3.78P  77.1P  0.00P           
06/24/2019 04:00 CDT3.79P  79.5P  0.00P  441P  27.4P  0.50P  
06/24/2019 04:05 CDT3.78P  77.1P  0.00P           
06/24/2019 04:10 CDT3.78P  77.1P  0.00P           
06/24/2019 04:15 CDT3.78P  77.1P  0.00P  441P  27.3P     
06/24/2019 04:20 CDT3.79P  79.5P  0.00P           
06/24/2019 04:25 CDT3.79P  79.5P  0.00P           
06/24/2019 04:30 CDT3.78P  77.1P  0.00P  441P  27.3P     
06/24/2019 04:35 CDT3.79P  79.5P  0.00P           
06/24/2019 04:40 CDT3.79P  79.5P  0.00P           
06/24/2019 04:45 CDT3.79P  79.5P  0.00P  441P  27.2P     
06/24/2019 04:50 CDT3.79P  79.5P  0.00P           
06/24/2019 04:55 CDT3.79P  79.5P  0.00P           
06/24/2019 05:00 CDT3.79P  79.5P  0.00P  441P  27.2P  0.50P  
06/24/2019 05:05 CDT3.78P  77.1P  0.00P           
06/24/2019 05:10 CDT3.78P  77.1P  0.00P           
06/24/2019 05:15 CDT3.78P  77.1P  0.00P  441P  27.1P     
06/24/2019 05:20 CDT3.78P  77.1P  0.00P           
06/24/2019 05:25 CDT3.78P  77.1P  0.00P           
06/24/2019 05:30 CDT3.77P  74.7P  0.00P  441P  27.1P     
06/24/2019 05:35 CDT3.79P  79.5P  0.00P           
06/24/2019 05:40 CDT3.79P  79.5P  0.00P           
06/24/2019 05:45 CDT3.79P  79.5P  0.00P  441P  27.0P     
06/24/2019 05:50 CDT3.77P  74.7P  0.00P           
06/24/2019 05:55 CDT3.77P  74.7P  0.00P           
06/24/2019 06:00 CDT3.79P  79.5P  0.00P  441P  27.0P  0.50P  
06/24/2019 06:05 CDT3.79P  79.5P  0.00P           
06/24/2019 06:10 CDT3.78P  77.1P  0.00P           
06/24/2019 06:15 CDT3.78P  77.1P  0.00P  441P  26.9P     
06/24/2019 06:20 CDT3.78P  77.1P  0.00P           
06/24/2019 06:25 CDT3.77P  74.7P  0.00P           
06/24/2019 06:30 CDT3.79P  79.5P  0.00P  441P  26.9P     
06/24/2019 06:35 CDT3.79P  79.5P  0.00P           
06/24/2019 06:40 CDT3.78P  77.1P  0.00P           
06/24/2019 06:45 CDT3.79P  79.5P  0.00P  441P  26.9P     
06/24/2019 06:50 CDT3.77P  74.7P  0.00P           
06/24/2019 06:55 CDT3.78P  77.1P  0.00P           
06/24/2019 07:00 CDT3.78P  77.1P  0.00P  441P  26.8P  0.50P  
06/24/2019 07:05 CDT3.78P  77.1P  0.00P           
06/24/2019 07:10 CDT3.79P  79.5P  0.00P           
06/24/2019 07:15 CDT3.78P  77.1P  0.00P  441P  26.8P     
06/24/2019 07:20 CDT3.78P  77.1P  0.00P           
06/24/2019 07:25 CDT3.78P  77.1P  0.00P           
06/24/2019 07:30 CDT3.79P  79.5P  0.00P  441P  26.8P     
06/24/2019 07:35 CDT3.78P  77.1P  0.00P           
06/24/2019 07:40 CDT3.78P  77.1P  0.00P           
06/24/2019 07:45 CDT3.79P  79.5P  0.00P  441P  26.7P     
06/24/2019 07:50 CDT3.78P  77.1P  0.00P           
06/24/2019 07:55 CDT3.78P  77.1P  0.00P           
06/24/2019 08:00 CDT3.79P  79.5P  0.00P  441P  26.7P  0.50P  
06/24/2019 08:05 CDT3.79P  79.5P  0.00P           
06/24/2019 08:10 CDT3.78P  77.1P  0.00P           
06/24/2019 08:15 CDT3.78P  77.1P  0.00P  441P  26.7P     
06/24/2019 08:20 CDT3.78P  77.1P  0.00P           
06/24/2019 08:25 CDT3.78P  77.1P  0.00P           
06/24/2019 08:30 CDT3.78P  77.1P  0.00P  442P  26.7P     
06/24/2019 08:35 CDT3.77P  74.7P  0.00P           
06/24/2019 08:40 CDT3.79P  79.5P  0.00P           
06/24/2019 08:45 CDT3.78P  77.1P  0.00P  442P  26.6P     
06/24/2019 08:50 CDT3.78P  77.1P  0.00P           
06/24/2019 08:55 CDT3.78P  77.1P  0.00P           
06/24/2019 09:00 CDT3.79P  79.5P  0.00P  442P  26.6P  0.50P  
06/24/2019 09:05 CDT3.79P  79.5P  0.00P           
06/24/2019 09:10 CDT3.78P  77.1P  0.00P           
06/24/2019 09:15 CDT3.78P  77.1P  0.00P  442P  26.6P     
06/24/2019 09:20 CDT3.78P  77.1P  0.00P           
06/24/2019 09:25 CDT3.79P  79.5P  0.00P           
06/24/2019 09:30 CDT3.79P  79.5P  0.00P  443P  26.6P     
06/24/2019 09:35 CDT3.79P  79.5P  0.00P           
06/24/2019 09:40 CDT3.78P  77.1P  0.00P           
06/24/2019 09:45 CDT3.78P  77.1P  0.00P  443P  26.6P     
06/24/2019 09:50 CDT3.78P  77.1P  0.00P           
06/24/2019 09:55 CDT3.78P  77.1P  0.00P           
06/24/2019 10:00 CDT3.79P  79.5P  0.00P  443P  26.6P  0.49P  
06/24/2019 10:05 CDT3.78P  77.1P  0.00P           
06/24/2019 10:10 CDT3.79P  79.5P  0.00P           
06/24/2019 10:15 CDT3.77P  74.7P  0.00P  443P  26.7P     
06/24/2019 10:20 CDT3.80P  81.9P  0.00P           
06/24/2019 10:25 CDT3.78P  77.1P  0.00P           
06/24/2019 10:30 CDT3.79P  79.5P  0.00P  443P  26.7P     
06/24/2019 10:35 CDT3.79P  79.5P  0.00P           
06/24/2019 10:40 CDT3.77P  74.7P  0.00P           
06/24/2019 10:45 CDT3.78P  77.1P  0.00P  444P  26.7P     
06/24/2019 10:50 CDT3.79P  79.5P  0.00P           
06/24/2019 10:55 CDT3.78P  77.1P  0.00P           
06/24/2019 11:00 CDT3.78P  77.1P  0.00P  446P  26.8P  0.50P  
06/24/2019 11:05 CDT3.79P  79.5P  0.00P           
06/24/2019 11:10 CDT3.79P  79.5P  0.00P           
06/24/2019 11:15 CDT3.78P  77.1P  0.00P  447P  26.8P     
06/24/2019 11:20 CDT3.77P  74.7P  0.00P           
06/24/2019 11:25 CDT3.78P  77.1P  0.00P           
06/24/2019 11:30 CDT3.79P  79.5P  0.00P  449P  26.9P     
06/24/2019 11:35 CDT3.78P  77.1P  0.00P           
06/24/2019 11:40 CDT3.78P  77.1P  0.00P           
06/24/2019 11:45 CDT3.79P  79.5P  0.00P  449P  26.9P     
06/24/2019 11:50 CDT3.78P  77.1P  0.00P           
06/24/2019 11:55 CDT3.77P  74.7P  0.00P           
06/24/2019 12:00 CDT3.78P  77.1P  0.00P  450P  27.0P  0.49P  
06/24/2019 12:05 CDT3.78P  77.1P  0.00P           
06/24/2019 12:10 CDT3.78P  77.1P  0.00P           
06/24/2019 12:15 CDT3.78P  77.1P  0.00P  450P  27.1P     
06/24/2019 12:20 CDT3.78P  77.1P  0.00P           
06/24/2019 12:25 CDT3.79P  79.5P  0.00P           
06/24/2019 12:30 CDT3.78P  77.1P  0.00P  449P  27.2P     
06/24/2019 12:35 CDT3.79P  79.5P  0.00P           
06/24/2019 12:40 CDT3.80P  81.9P  0.00P           
06/24/2019 12:45 CDT3.77P  74.7P  0.00P  449P  27.3P     
06/24/2019 12:50 CDT3.77P  74.7P  0.00P           
06/24/2019 12:55 CDT3.78P  77.1P  0.00P           
06/24/2019 13:00 CDT3.78P  77.1P  0.00P  449P  27.4P  0.47P  
06/24/2019 13:05 CDT3.78P  77.1P  0.00P           
06/24/2019 13:10 CDT3.78P  77.1P  0.00P           
06/24/2019 13:15 CDT3.78P  77.1P  0.00P  448P  27.6P     
06/24/2019 13:20 CDT3.78P  77.1P  0.00P           
06/24/2019 13:25 CDT3.79P  79.5P  0.00P           
06/24/2019 13:30 CDT3.78P  77.1P  0.00P  448P  27.7P     
06/24/2019 13:35 CDT3.77P  74.7P  0.00P           
06/24/2019 13:40 CDT3.79P  79.5P  0.00P           
06/24/2019 13:45 CDT3.78P  77.1P  0.00P  447P  27.8P     
06/24/2019 13:50 CDT3.79P  79.5P  0.00P           
06/24/2019 13:55 CDT3.78P  77.1P  0.00P           
06/24/2019 14:00 CDT3.78P  77.1P  0.00P  447P  27.9P  0.46P  
06/24/2019 14:05 CDT3.78P  77.1P  0.00P           
06/24/2019 14:10 CDT3.78P  77.1P  0.00P           
06/24/2019 14:15 CDT3.77P  74.7P  0.00P  447P  27.9P     
06/24/2019 14:20 CDT3.78P  77.1P  0.00P           
06/24/2019 14:25 CDT3.77P  74.7P  0.00P           
06/24/2019 14:30 CDT3.77P  74.7P  0.00P  446P  28.0P     
06/24/2019 14:35 CDT3.78P  77.1P  0.00P           
06/24/2019 14:40 CDT3.77P  74.7P  0.00P           
06/24/2019 14:45 CDT3.78P  77.1P  0.00P  446P  28.0P     
06/24/2019 14:50 CDT3.79P  79.5P  0.00P           
06/24/2019 14:55 CDT3.78P  77.1P  0.00P           
06/24/2019 15:00 CDT3.78P  77.1P  0.00P  446P  28.1P  0.46P  
06/24/2019 15:05 CDT3.78P  77.1P  0.00P           
06/24/2019 15:10 CDT3.78P  77.1P  0.00P           
06/24/2019 15:15 CDT3.77P  74.7P  0.00P  446P  28.2P     
06/24/2019 15:20 CDT3.77P  74.7P  0.00P           
06/24/2019 15:25 CDT3.78P  77.1P  0.00P           
06/24/2019 15:30 CDT3.80P  81.9P  0.00P  446P  28.2P     
06/24/2019 15:35 CDT3.78P  77.1P  0.00P           
06/24/2019 15:40 CDT3.79P  79.5P  0.00P           
06/24/2019 15:45 CDT3.78P  77.1P  0.00P  445P  28.2P     
06/24/2019 15:50 CDT3.77P  74.7P  0.00P           
06/24/2019 15:55 CDT3.79P  79.5P  0.00P           
06/24/2019 16:00 CDT3.77P  74.7P  0.00P  445P  28.2P  0.46P  
06/24/2019 16:05 CDT3.77P  74.7P  0.00P           
06/24/2019 16:10 CDT3.79P  79.5P  0.00P           
06/24/2019 16:15 CDT3.77P  74.7P  0.00P  442P  28.2P     
06/24/2019 16:20 CDT3.78P  77.1P  0.00P           
06/24/2019 16:25 CDT3.78P  77.1P  0.00P           
06/24/2019 16:30 CDT3.77P  74.7P  0.00P  443P  28.2P     
06/24/2019 16:35 CDT3.77P  74.7P  0.00P           
06/24/2019 16:40 CDT3.79P  79.5P  0.00P           
06/24/2019 16:45 CDT3.78P  77.1P  0.00P  441P  28.2P     
06/24/2019 16:50 CDT3.75P  70.2P  0.00P           
06/24/2019 16:55 CDT3.78P  77.1P  0.00P           
06/24/2019 17:00 CDT3.79P  79.5P  0.00P  441P  28.1P  0.46P  
06/24/2019 17:05 CDT3.79P  79.5P  0.00P           
06/24/2019 17:10 CDT3.79P  79.5P  0.00P           
06/24/2019 17:15 CDT3.78P  77.1P  0.00P  440P  28.1P     
06/24/2019 17:20 CDT3.79P  79.5P  0.00P           
06/24/2019 17:25 CDT3.79P  79.5P  0.00P           
06/24/2019 17:30 CDT3.78P  77.1P  0.00P  440P  28.1P     
06/24/2019 17:35 CDT3.78P  77.1P  0.00P           
06/24/2019 17:40 CDT3.78P  77.1P  0.00P           
06/24/2019 17:45 CDT3.77P  74.7P  0.00P  441P  28.1P     
06/24/2019 17:50 CDT3.77P  74.7P  0.00P           
06/24/2019 17:55 CDT3.76P  72.4P  0.00P           
06/24/2019 18:00 CDT3.78P  77.1P  0.00P  440P  28.1P  0.46P  
06/24/2019 18:05 CDT3.79P  79.5P  0.00P           
06/24/2019 18:10 CDT3.78P  77.1P  0.00P           
06/24/2019 18:15 CDT3.77P  74.7P  0.00P  440P  28.1P     
06/24/2019 18:20 CDT3.79P  79.5P  0.00P           
06/24/2019 18:25 CDT3.78P  77.1P  0.00P           
06/24/2019 18:30 CDT3.77P  74.7P  0.00P  440P  28.0P     
06/24/2019 18:35 CDT3.77P  74.7P  0.00P           
06/24/2019 18:40 CDT3.79P  79.5P  0.00P           
06/24/2019 18:45 CDT3.78P  77.1P  0.00P  440P  28.0P     
06/24/2019 18:50 CDT3.79P  79.5P  0.00P           
06/24/2019 18:55 CDT3.76P  72.4P  0.00P           
06/24/2019 19:00 CDT3.78P  77.1P  0.00P  440P  28.0P  0.46P  
06/24/2019 19:05 CDT3.77P  74.7P  0.00P           
06/24/2019 19:10 CDT3.79P  79.5P  0.00P           
06/24/2019 19:15 CDT3.77P  74.7P  0.00P  440P  28.0P     
06/24/2019 19:20 CDT3.77P  74.7P  0.00P           
06/24/2019 19:25 CDT3.79P  79.5P  0.00P           
06/24/2019 19:30 CDT3.76P  72.4P  0.00P  440P  28.0P     
06/24/2019 19:35 CDT3.78P  77.1P  0.00P           
06/24/2019 19:40 CDT3.78P  77.1P  0.00P           
06/24/2019 19:45 CDT3.78P  77.1P  0.00P  440P  27.9P     
06/24/2019 19:50 CDT3.77P  74.7P  0.00P           
06/24/2019 19:55 CDT3.78P  77.1P  0.00P           
06/24/2019 20:00 CDT3.77P  74.7P  0.00P  440P  27.9P  0.46P  
06/24/2019 20:05 CDT3.77P  74.7P  0.00P           
06/24/2019 20:10 CDT3.77P  74.7P  0.00P           
06/24/2019 20:15 CDT3.77P  74.7P  0.00P  440P  27.9P     
06/24/2019 20:20 CDT3.77P  74.7P  0.00P           
06/24/2019 20:25 CDT3.78P  77.1P  0.00P           
06/24/2019 20:30 CDT3.76P  72.4P  0.00P  441P  27.8P     
06/24/2019 20:35 CDT3.76P  72.4P  0.00P           
06/24/2019 20:40 CDT3.78P  77.1P  0.00P           
06/24/2019 20:45 CDT3.77P  74.7P  0.00P  441P  27.8P     
06/24/2019 20:50 CDT3.77P  74.7P  0.00P           
06/24/2019 20:55 CDT3.77P  74.7P  0.00P           
06/24/2019 21:00 CDT3.76P  72.4P  0.00P  441P  27.7P  0.46P  
06/24/2019 21:05 CDT3.78P  77.1P  0.00P           
06/24/2019 21:10 CDT3.77P  74.7P  0.00P           
06/24/2019 21:15 CDT3.78P  77.1P  0.00P  441P  27.6P     
06/24/2019 21:20 CDT3.78P  77.1P  0.00P           
06/24/2019 21:25 CDT3.77P  74.7P  0.00P           
06/24/2019 21:30 CDT3.77P  74.7P  0.00P  441P  27.6P     
06/24/2019 21:35 CDT3.77P  74.7P  0.00P           
06/24/2019 21:40 CDT3.78P  77.1P  0.00P           
06/24/2019 21:45 CDT3.77P  74.7P  0.00P  441P  27.5P     
06/24/2019 21:50 CDT3.77P  74.7P  0.00P           
06/24/2019 21:55 CDT3.77P  74.7P  0.00P           
06/24/2019 22:00 CDT3.77P  74.7P  0.00P  441P  27.5P  0.47P  
06/24/2019 22:05 CDT3.77P  74.7P  0.00P           
06/24/2019 22:10 CDT3.77P  74.7P  0.00P           
06/24/2019 22:15 CDT3.76P  72.4P  0.00P  441P  27.4P     
06/24/2019 22:20 CDT3.77P  74.7P  0.00P           
06/24/2019 22:25 CDT3.77P  74.7P  0.00P           
06/24/2019 22:30 CDT3.76P  72.4P  0.00P  441P  27.4P     
06/24/2019 22:35 CDT3.78P  77.1P  0.00P           
06/24/2019 22:40 CDT3.77P  74.7P  0.00P           
06/24/2019 22:45 CDT3.76P  72.4P  0.00P  441P  27.3P     
06/24/2019 22:50 CDT3.77P  74.7P  0.00P           
06/24/2019 22:55 CDT3.77P  74.7P  0.00P           
06/24/2019 23:00 CDT3.78P  77.1P  0.00P  441P  27.3P  0.47P  
06/24/2019 23:05 CDT3.78P  77.1P  0.00P           
06/24/2019 23:10 CDT3.78P  77.1P  0.00P           
06/24/2019 23:15 CDT3.78P  77.1P  0.00P  441P  27.2P     
06/24/2019 23:20 CDT3.77P  74.7P  0.00P           
06/24/2019 23:25 CDT3.77P  74.7P  0.00P           
06/24/2019 23:30 CDT3.77P  74.7P  0.00P  441P  27.2P     
06/24/2019 23:35 CDT3.76P  72.4P  0.00P           
06/24/2019 23:40 CDT3.77P  74.7P  0.00P           
06/24/2019 23:45 CDT3.78P  77.1P  0.00P  441P  27.2P     
06/24/2019 23:50 CDT3.76P  72.4P  0.00P           
06/24/2019 23:55 CDT3.78P  77.1P  0.00P           
06/25/2019 00:00 CDT3.78P  77.1P  0.00P  441P  27.1P  0.48P  
06/25/2019 00:05 CDT3.77P  74.7P  0.00P           
06/25/2019 00:10 CDT3.78P  77.1P  0.00P           
06/25/2019 00:15 CDT3.78P  77.1P  0.00P  441P  27.1P     
06/25/2019 00:20 CDT3.77P  74.7P  0.00P           
06/25/2019 00:25 CDT3.76P  72.4P  0.00P           
06/25/2019 00:30 CDT3.78P  77.1P  0.00P  441P  27.1P     
06/25/2019 00:35 CDT3.77P  74.7P  0.00P           
06/25/2019 00:40 CDT3.77P  74.7P  0.00P           
06/25/2019 00:45 CDT3.77P  74.7P  0.00P  442P  27.0P     
06/25/2019 00:50 CDT3.76P  72.4P  0.00P           
06/25/2019 00:55 CDT3.77P  74.7P  0.00P           
06/25/2019 01:00 CDT3.77P  74.7P  0.00P  442P  27.0P  0.48P  
06/25/2019 01:05 CDT3.77P  74.7P  0.00P           
06/25/2019 01:10 CDT3.77P  74.7P  0.00P           
06/25/2019 01:15 CDT3.77P  74.7P  0.00P  442P  27.0P     
06/25/2019 01:20 CDT3.76P  72.4P  0.00P           
06/25/2019 01:25 CDT3.77P  74.7P  0.00P           
06/25/2019 01:30 CDT3.77P  74.7P  0.00P  442P  26.9P     
06/25/2019 01:35 CDT3.78P  77.1P  0.00P           
06/25/2019 01:40 CDT3.77P  74.7P  0.00P           
06/25/2019 01:45 CDT3.77P  74.7P  0.00P  442P  26.9P     
06/25/2019 01:50 CDT3.77P  74.7P  0.00P           
06/25/2019 01:55 CDT3.78P  77.1P  0.00P           
06/25/2019 02:00 CDT3.76P  72.4P  0.00P  442P  26.8P  0.49P  
06/25/2019 02:05 CDT3.78P  77.1P  0.00P           
06/25/2019 02:10 CDT3.77P  74.7P  0.00P           
06/25/2019 02:15 CDT3.77P  74.7P  0.00P  442P  26.8P     
06/25/2019 02:20 CDT3.78P  77.1P  0.00P           
06/25/2019 02:25 CDT3.77P  74.7P  0.00P           
06/25/2019 02:30 CDT3.77P  74.7P  0.00P  442P  26.7P     
06/25/2019 02:35 CDT3.77P  74.7P  0.00P           
06/25/2019 02:40 CDT3.77P  74.7P  0.00P           
06/25/2019 02:45 CDT3.76P  72.4P  0.00P  442P  26.7P     
06/25/2019 02:50 CDT3.77P  74.7P  0.00P           
06/25/2019 02:55 CDT3.76P  72.4P  0.00P           
06/25/2019 03:00 CDT3.77P  74.7P  0.00P  442P  26.6P  0.49P  
06/25/2019 03:05 CDT3.76P  72.4P  0.00P           
06/25/2019 03:10 CDT3.77P  74.7P  0.00P           
06/25/2019 03:15 CDT3.78P  77.1P  0.00P  442P  26.6P     
06/25/2019 03:20 CDT3.77P  74.7P  0.00P           
06/25/2019 03:25 CDT3.77P  74.7P  0.00P           
06/25/2019 03:30 CDT3.78P  77.1P  0.00P  442P  26.5P     
06/25/2019 03:35 CDT3.76P  72.4P  0.00P           
06/25/2019 03:40 CDT3.77P  74.7P  0.00P           
06/25/2019 03:45 CDT3.77P  74.7P  0.00P  442P  26.4P     
06/25/2019 03:50 CDT3.77P  74.7P  0.00P           
06/25/2019 03:55 CDT3.76P  72.4P  0.00P           
06/25/2019 04:00 CDT3.77P  74.7P  0.00P  442P  26.4P  0.49P  
06/25/2019 04:05 CDT3.78P  77.1P  0.00P           
06/25/2019 04:10 CDT3.77P  74.7P  0.00P           
06/25/2019 04:15 CDT3.77P  74.7P  0.00P  442P  26.3P     
06/25/2019 04:20 CDT3.78P  77.1P  0.00P           
06/25/2019 04:25 CDT3.76P  72.4P  0.00P           
06/25/2019 04:30 CDT3.77P  74.7P  0.00P  441P  26.2P     
06/25/2019 04:35 CDT3.76P  72.4P  0.01P           
06/25/2019 04:40 CDT3.78P  77.1P  0.00P           
06/25/2019 04:45 CDT3.77P  74.7P  0.00P  441P  26.1P     
06/25/2019 04:50 CDT3.78P  77.1P  0.00P           
06/25/2019 04:55 CDT3.76P  72.4P  0.00P           
06/25/2019 05:00 CDT3.77P  74.7P  0.00P  441P  26.0P  0.49P  
06/25/2019 05:05 CDT3.77P  74.7P  0.00P           
06/25/2019 05:10 CDT3.78P  77.1P  0.00P           
06/25/2019 05:15 CDT3.75P  70.2P  0.00P  441P  26.0P     
06/25/2019 05:20 CDT3.79P  79.5P  0.00P           
06/25/2019 05:25 CDT3.77P  74.7P  0.00P           
06/25/2019 05:30 CDT3.77P  74.7P  0.00P  441P  25.9P     
06/25/2019 05:35 CDT3.77P  74.7P  0.00P           
06/25/2019 05:40 CDT3.78P  77.1P  0.00P           
06/25/2019 05:45 CDT3.77P  74.7P  0.00P  441P  25.8P     
06/25/2019 05:50 CDT3.76P  72.4P  0.00P           
06/25/2019 05:55 CDT3.77P  74.7P  0.00P           
06/25/2019 06:00 CDT3.77P  74.7P  0.00P  442P  25.8P  0.49P  
06/25/2019 06:05 CDT3.78P  77.1P  0.00P           
06/25/2019 06:10 CDT3.77P  74.7P  0.00P           
06/25/2019 06:15 CDT3.78P  77.1P  0.00P  442P  25.7P     
06/25/2019 06:20 CDT3.77P  74.7P  0.00P           
06/25/2019 06:25 CDT3.77P  74.7P  0.00P           
06/25/2019 06:30 CDT3.77P  74.7P  0.00P  442P  25.6P     
06/25/2019 06:35 CDT3.78P  77.1P  0.00P           
06/25/2019 06:40 CDT3.78P  77.1P  0.00P           
06/25/2019 06:45 CDT3.77P  74.7P  0.00P  442P  25.6P     
06/25/2019 06:50 CDT3.77P  74.7P  0.00P           
06/25/2019 06:55 CDT3.77P  74.7P  0.00P           
06/25/2019 07:00 CDT3.78P  77.1P  0.00P  442P  25.5P  0.49P  
06/25/2019 07:05 CDT3.78P  77.1P  0.00P           
06/25/2019 07:10 CDT3.77P  74.7P  0.00P           
06/25/2019 07:15 CDT3.77P  74.7P  0.00P  442P  25.4P     
06/25/2019 07:20 CDT3.78P  77.1P  0.00P           
06/25/2019 07:25 CDT3.76P  72.4P  0.00P           
06/25/2019 07:30 CDT3.78P  77.1P  0.00P  442P  25.4P     
06/25/2019 07:35 CDT3.78P  77.1P  0.00P           
06/25/2019 07:40 CDT3.78P  77.1P  0.00P           
06/25/2019 07:45 CDT3.77P  74.7P  0.00P  442P  25.3P     
06/25/2019 07:50 CDT3.78P  77.1P  0.00P           
06/25/2019 07:55 CDT3.78P  77.1P  0.00P           
06/25/2019 08:00 CDT3.78P  77.1P  0.00P  442P  25.3P  0.50P  
06/25/2019 08:05 CDT3.78P  77.1P  0.00P           
06/25/2019 08:10 CDT3.76P  72.4P  0.00P           
06/25/2019 08:15 CDT3.77P  74.7P  0.00P  442P  25.3P     
06/25/2019 08:20 CDT3.78P  77.1P  0.00P           
06/25/2019 08:25 CDT3.76P  72.4P  0.00P           
06/25/2019 08:30 CDT3.78P  77.1P  0.00P  442P  25.2P     
06/25/2019 08:35 CDT3.77P  74.7P  0.00P           
06/25/2019 08:40 CDT3.77P  74.7P  0.00P           
06/25/2019 08:45 CDT3.78P  77.1P  0.00P  442P  25.2P     
06/25/2019 08:50 CDT3.78P  77.1P  0.00P           
06/25/2019 08:55 CDT3.78P  77.1P  0.00P           
06/25/2019 09:00 CDT3.77P  74.7P  0.00P  443P  25.2P  0.50P  
06/25/2019 09:05 CDT3.78P  77.1P  0.00P           
06/25/2019 09:10 CDT3.77P  74.7P  0.00P           
06/25/2019 09:15 CDT3.78P  77.1P  0.00P  443P  25.2P     
06/25/2019 09:20 CDT3.78P  77.1P  0.00P           
06/25/2019 09:25 CDT3.77P  74.7P  0.00P           
06/25/2019 09:30 CDT3.78P  77.1P  0.00P  442P  25.2P     
06/25/2019 09:35 CDT3.77P  74.7P  0.00P           
06/25/2019 09:40 CDT3.79P  79.5P  0.00P           
06/25/2019 09:45 CDT3.78P  77.1P  0.00P  442P  25.2P     
06/25/2019 09:50 CDT3.77P  74.7P  0.00P           
06/25/2019 09:55 CDT3.78P  77.1P  0.00P           
06/25/2019 10:00 CDT3.79P  79.5P  0.00P  443P  25.2P  0.50P  
06/25/2019 10:05 CDT3.77P  74.7P  0.00P           
06/25/2019 10:10 CDT3.78P  77.1P  0.00P           
06/25/2019 10:15 CDT3.78P  77.1P  0.00P  444P  25.3P     
06/25/2019 10:20 CDT3.78P  77.1P  0.00P           
06/25/2019 10:25 CDT3.79P  79.5P  0.00P           
06/25/2019 10:30 CDT3.78P  77.1P  0.00P  444P  25.3P     
06/25/2019 10:35 CDT3.78P  77.1P  0.00P           
06/25/2019 10:40 CDT3.78P  77.1P  0.00P           
06/25/2019 10:45 CDT3.79P  79.5P  0.00P  445P  25.4P     
06/25/2019 10:50 CDT3.78P  77.1P  0.00P           
06/25/2019 10:55 CDT3.79P  79.5P  0.00P           
06/25/2019 11:00 CDT3.78P  77.1P  0.00P  446P  25.5P  0.48P  
06/25/2019 11:05 CDT3.78P  77.1P  0.00P           
06/25/2019 11:10 CDT3.77P  74.7P  0.00P           
06/25/2019 11:15 CDT3.79P  79.5P  0.00P  447P  25.6P     
06/25/2019 11:20 CDT3.78P  77.1P  0.00P           
06/25/2019 11:25 CDT3.78P  77.1P  0.00P           
06/25/2019 11:30 CDT3.77P  74.7P  0.00P  447P  25.7P     
06/25/2019 11:35 CDT3.78P  77.1P  0.00P           
06/25/2019 11:40 CDT3.78P  77.1P  0.00P           
06/25/2019 11:45 CDT3.77P  74.7P  0.00P  447P  25.8P     
06/25/2019 11:50 CDT3.77P  74.7P  0.00P           
06/25/2019 11:55 CDT3.79P  79.5P  0.00P           
06/25/2019 12:00 CDT3.78P  77.1P  0.00P  447P  26.0P  0.46P  
06/25/2019 12:05 CDT3.79P  79.5P  0.00P           
06/25/2019 12:10 CDT3.77P  74.7P  0.00P           
06/25/2019 12:15 CDT3.79P  79.5P  0.00P  447P  26.1P     
06/25/2019 12:20 CDT3.78P  77.1P  0.00P           
06/25/2019 12:25 CDT3.78P  77.1P  0.00P           
06/25/2019 12:30 CDT3.80P  81.9P  0.00P  447P  26.3P     
06/25/2019 12:35 CDT3.78P  77.1P  0.00P           
06/25/2019 12:40 CDT3.79P  79.5P  0.00P           
06/25/2019 12:45 CDT3.79P  79.5P  0.00P  447P  26.4P     
06/25/2019 12:50 CDT3.79P  79.5P  0.00P           
06/25/2019 12:55 CDT3.79P  79.5P  0.00P           
06/25/2019 13:00 CDT3.79P  79.5P  0.00P  447P  26.6P  0.45P  
06/25/2019 13:05 CDT3.78P  77.1P  0.00P           
06/25/2019 13:10 CDT3.79P  79.5P  0.00P           
06/25/2019 13:15 CDT3.78P  77.1P  0.00P  446P  26.7P     
06/25/2019 13:20 CDT3.79P  79.5P  0.00P           
06/25/2019 13:25 CDT3.78P  77.1P  0.00P           
06/25/2019 13:30 CDT3.78P  77.1P  0.00P  446P  26.8P     
06/25/2019 13:35 CDT3.78P  77.1P  0.00P           
06/25/2019 13:40 CDT3.78P  77.1P  0.00P           
06/25/2019 13:45 CDT3.80P  81.9P  0.00P  446P  26.9P     
06/25/2019 13:50 CDT3.80P  81.9P  0.00P           
06/25/2019 13:55 CDT3.78P  77.1P  0.00P           
06/25/2019 14:00 CDT3.79P  79.5P  0.00P  445P  27.0P  0.44P  
06/25/2019 14:05 CDT3.78P  77.1P  0.00P           
06/25/2019 14:10 CDT3.79P  79.5P  0.00P           
06/25/2019 14:15 CDT3.79P  79.5P  0.00P  445P  27.0P     
06/25/2019 14:20 CDT3.79P  79.5P  0.00P           
06/25/2019 14:25 CDT3.78P  77.1P  0.00P           
06/25/2019 14:30 CDT3.79P  79.5P  0.00P  445P  27.1P     
06/25/2019 14:35 CDT3.78P  77.1P  0.00P           
06/25/2019 14:40 CDT3.80P  81.9P  0.00P           
06/25/2019 14:45 CDT3.79P  79.5P  0.00P  445P  27.2P     
06/25/2019 14:50 CDT3.79P  79.5P  0.00P           
06/25/2019 14:55 CDT3.80P  81.9P  0.00P           
06/25/2019 15:00 CDT3.80P  81.9P  0.00P  444P  27.3P  0.44P  
06/25/2019 15:05 CDT3.79P  79.5P  0.00P           
06/25/2019 15:10 CDT3.81P  84.4P  0.00P           
06/25/2019 15:15 CDT3.81P  84.4P  0.00P  444P  27.4P     
06/25/2019 15:20 CDT3.80P  81.9P  0.00P           
06/25/2019 15:25 CDT3.81P  84.4P  0.00P           
06/25/2019 15:30 CDT3.80P  81.9P  0.00P  444P  27.5P     
06/25/2019 15:35 CDT3.81P  84.4P  0.00P           
06/25/2019 15:40 CDT3.80P  81.9P  0.00P           
06/25/2019 15:45 CDT3.81P  84.4P  0.00P  444P  27.6P     
06/25/2019 15:50 CDT3.80P  81.9P  0.00P           
06/25/2019 15:55 CDT3.81P  84.4P  0.00P           
06/25/2019 16:00 CDT3.81P  84.4P  0.00P  444P  27.6P  0.44P  
06/25/2019 16:05 CDT3.81P  84.4P  0.00P           
06/25/2019 16:10 CDT3.81P  84.4P  0.00P           
06/25/2019 16:15 CDT3.81P  84.4P  0.00P  443P  27.7P     
06/25/2019 16:20 CDT3.82P  87.0P  0.00P           
06/25/2019 16:25 CDT3.82P  87.0P  0.00P           
06/25/2019 16:30 CDT3.82P  87.0P  0.00P  443P  27.8P     
06/25/2019 16:35 CDT3.82P  87.0P  0.00P           
06/25/2019 16:40 CDT3.82P  87.0P  0.00P           
06/25/2019 16:45 CDT3.84P  92.2P  0.00P  443P  27.8P     
06/25/2019 16:50 CDT3.83P  89.6P  0.00P           
06/25/2019 16:55 CDT3.82P  87.0P  0.00P           
06/25/2019 17:00 CDT3.84P  92.2P  0.00P  443P  27.9P  0.44P  
06/25/2019 17:05 CDT3.85P  94.9P  0.00P           
06/25/2019 17:10 CDT3.83P  89.6P  0.00P           
06/25/2019 17:15 CDT3.84P  92.2P  0.00P  442P  28.0P     
06/25/2019 17:20 CDT3.85P  94.9P  0.00P           
06/25/2019 17:25 CDT3.85P  94.9P  0.00P           
06/25/2019 17:30 CDT3.84P  92.2P  0.00P  442P  28.1P     
06/25/2019 17:35 CDT3.86P  97.6P  0.00P           
06/25/2019 17:40 CDT3.86P  97.6P  0.00P           
06/25/2019 17:45 CDT3.84P  92.2P  0.00P  442P  28.2P     
06/25/2019 17:50 CDT3.85P  94.9P  0.00P           
06/25/2019 17:55 CDT3.85P  94.9P  0.00P           
06/25/2019 18:00 CDT3.86P  97.6P  0.00P  442P  28.2P  0.44P  
06/25/2019 18:05 CDT3.86P  97.6P  0.00P           
06/25/2019 18:10 CDT3.86P  97.6P  0.00P           
06/25/2019 18:15 CDT3.85P  94.9P  0.00P  442P  28.3P     
06/25/2019 18:20 CDT3.87P  100P  0.00P           
06/25/2019 18:25 CDT3.87P  100P  0.00P           
06/25/2019 18:30 CDT3.87P  100P  0.00P  442P  28.3P     
06/25/2019 18:35 CDT3.87P  100P  0.00P           
06/25/2019 18:40 CDT3.85P  94.9P  0.00P           
06/25/2019 18:45 CDT3.85P  94.9P  0.00P  441P  28.4P     
06/25/2019 18:50 CDT3.87P  100P  0.00P           
06/25/2019 18:55 CDT3.86P  97.6P  0.00P           
06/25/2019 19:00 CDT3.87P  100P  0.00P  441P  28.4P  0.44P  
06/25/2019 19:05 CDT3.87P  100P  0.00P           
06/25/2019 19:10 CDT3.86P  97.6P  0.00P           
06/25/2019 19:15 CDT3.85P  94.9P  0.00P  441P  28.5P     
06/25/2019 19:20 CDT3.85P  94.9P  0.00P           
06/25/2019 19:25 CDT3.86P  97.6P  0.00P           
06/25/2019 19:30 CDT3.87P  100P  0.00P  441P  28.5P     
06/25/2019 19:35 CDT3.85P  94.9P  0.00P           
06/25/2019 19:40 CDT3.86P  97.6P  0.00P           
06/25/2019 19:45 CDT3.86P  97.6P  0.00P  441P  28.4P     
06/25/2019 19:50 CDT3.86P  97.6P  0.00P           
06/25/2019 19:55 CDT3.87P  100P  0.00P           
06/25/2019 20:00 CDT3.86P  97.6P  0.00P  441P  28.4P  0.44P  
06/25/2019 20:05 CDT3.87P  100P  0.00P           
06/25/2019 20:10 CDT3.86P  97.6P  0.00P           
06/25/2019 20:15 CDT3.86P  97.6P  0.00P  441P  28.4P     
06/25/2019 20:20 CDT3.85P  94.9P  0.00P           
06/25/2019 20:25 CDT3.85P  94.9P  0.00P           
06/25/2019 20:30 CDT3.86P  97.6P  0.00P  440P  28.4P     
06/25/2019 20:35 CDT3.85P  94.9P  0.00P           
06/25/2019 20:40 CDT3.85P  94.9P  0.00P           
06/25/2019 20:45 CDT3.85P  94.9P  0.00P  440P  28.3P     
06/25/2019 20:50 CDT3.84P  92.2P  0.00P           
06/25/2019 20:55 CDT3.86P  97.6P  0.00P           
06/25/2019 21:00 CDT3.86P  97.6P  0.00P  440P  28.3P  0.45P  
06/25/2019 21:05 CDT3.84P  92.2P  0.00P           
06/25/2019 21:10 CDT3.85P  94.9P  0.00P           
06/25/2019 21:15 CDT3.85P  94.9P  0.00P  439P  28.2P     
06/25/2019 21:20 CDT3.86P  97.6P  0.00P           
06/25/2019 21:25 CDT3.85P  94.9P  0.00P           
06/25/2019 21:30 CDT3.85P  94.9P  0.00P  439P  28.2P     
06/25/2019 21:35 CDT3.85P  94.9P  0.00P           
06/25/2019 21:40 CDT3.85P  94.9P  0.00P           
06/25/2019 21:45 CDT3.86P  97.6P  0.00P  439P  28.1P     
06/25/2019 21:50 CDT3.85P  94.9P  0.00P           
06/25/2019 21:55 CDT3.85P  94.9P  0.00P           
06/25/2019 22:00 CDT3.85P  94.9P  0.00P  439P  28.1P  0.45P  
06/25/2019 22:05 CDT3.84P  92.2P  0.00P           
06/25/2019 22:10 CDT3.84P  92.2P  0.00P           
06/25/2019 22:15 CDT3.84P  92.2P  0.00P  439P  28.0P     
06/25/2019 22:20 CDT3.84P  92.2P  0.00P           
06/25/2019 22:25 CDT3.84P  92.2P  0.00P           
06/25/2019 22:30 CDT3.84P  92.2P  0.00P  439P  28.0P     
06/25/2019 22:35 CDT3.84P  92.2P  0.00P           
06/25/2019 22:40 CDT3.83P  89.6P  0.00P           
06/25/2019 22:45 CDT3.85P  94.9P  0.00P  439P  27.9P     
06/25/2019 22:50 CDT3.83P  89.6P  0.00P           
06/25/2019 22:55 CDT3.84P  92.2P  0.00P           
06/25/2019 23:00 CDT3.84P  92.2P  0.00P  438P  27.8P  0.46P  
06/25/2019 23:05 CDT3.84P  92.2P  0.00P           
06/25/2019 23:10 CDT3.84P  92.2P  0.00P           
06/25/2019 23:15 CDT3.83P  89.6P  0.00P  438P  27.8P     
06/25/2019 23:20 CDT3.83P  89.6P  0.00P           
06/25/2019 23:25 CDT3.83P  89.6P  0.00P           
06/25/2019 23:30 CDT3.84P  92.2P  0.00P  438P  27.7P     
06/25/2019 23:35 CDT3.84P  92.2P  0.00P           
06/25/2019 23:40 CDT3.84P  92.2P  0.00P           
06/25/2019 23:45 CDT3.84P  92.2P  0.00P  438P  27.6P     
06/25/2019 23:50 CDT3.83P  89.6P  0.00P           
06/25/2019 23:55 CDT3.83P  89.6P  0.00P           
06/26/2019 00:00 CDT3.84P  92.2P  0.00P  438P  27.6P  0.46P  
06/26/2019 00:05 CDT3.83P  89.6P  0.00P           
06/26/2019 00:10 CDT3.84P  92.2P  0.00P           
06/26/2019 00:15 CDT3.84P  92.2P  0.00P  438P  27.5P     
06/26/2019 00:20 CDT3.84P  92.2P  0.00P           
06/26/2019 00:25 CDT3.83P  89.6P  0.00P           
06/26/2019 00:30 CDT3.83P  89.6P  0.00P  438P  27.4P     
06/26/2019 00:35 CDT3.84P  92.2P  0.00P           
06/26/2019 00:40 CDT3.83P  89.6P  0.00P           
06/26/2019 00:45 CDT3.83P  89.6P  0.00P  438P  27.4P     
06/26/2019 00:50 CDT3.82P  87.0P  0.00P           
06/26/2019 00:55 CDT3.83P  89.6P  0.00P           
06/26/2019 01:00 CDT3.82P  87.0P  0.00P  438P  27.3P  0.46P  
06/26/2019 01:05 CDT3.84P  92.2P  0.00P           
06/26/2019 01:10 CDT3.83P  89.6P  0.00P           
06/26/2019 01:15 CDT3.84P  92.2P  0.00P  438P  27.2P     
06/26/2019 01:20 CDT3.83P  89.6P  0.00P           
06/26/2019 01:25 CDT3.83P  89.6P  0.00P           
06/26/2019 01:30 CDT3.84P  92.2P  0.00P  438P  27.2P     
06/26/2019 01:35 CDT3.82P  87.0P  0.00P           
06/26/2019 01:40 CDT3.82P  87.0P  0.00P           
06/26/2019 01:45 CDT3.83P  89.6P  0.00P  438P  27.1P     
06/26/2019 01:50 CDT3.82P  87.0P  0.00P           
06/26/2019 01:55 CDT3.83P  89.6P  0.00P           
06/26/2019 02:00 CDT3.82P  87.0P  0.00P  438P  27.0P  0.46P  
06/26/2019 02:05 CDT3.83P  89.6P  0.00P           
06/26/2019 02:10 CDT3.83P  89.6P  0.00P           
06/26/2019 02:15 CDT3.83P  89.6P  0.00P  438P  27.0P     
06/26/2019 02:20 CDT3.82P  87.0P  0.00P           
06/26/2019 02:25 CDT3.82P  87.0P  0.00P           
06/26/2019 02:30 CDT3.83P  89.6P  0.00P  439P  26.9P     
06/26/2019 02:35 CDT3.82P  87.0P  0.00P           
06/26/2019 02:40 CDT3.82P  87.0P  0.00P           
06/26/2019 02:45 CDT3.83P  89.6P  0.00P  439P  26.8P     
06/26/2019 02:50 CDT3.82P  87.0P  0.00P           
06/26/2019 02:55 CDT3.81P  84.4P  0.00P           
06/26/2019 03:00 CDT3.82P  87.0P  0.00P  438P  26.8P  0.46P  
06/26/2019 03:05 CDT3.83P  89.6P  0.00P           
06/26/2019 03:10 CDT3.81P  84.4P  0.00P           
06/26/2019 03:15 CDT3.82P  87.0P  0.00P  439P  26.7P     
06/26/2019 03:20 CDT3.83P  89.6P  0.00P           
06/26/2019 03:25 CDT3.83P  89.6P  0.00P           
06/26/2019 03:30 CDT3.82P  87.0P  0.00P  439P  26.6P     
06/26/2019 03:35 CDT3.83P  89.6P  0.00P           
06/26/2019 03:40 CDT3.82P  87.0P  0.00P           
06/26/2019 03:45 CDT3.81P  84.4P  0.00P  437P  26.6P     
06/26/2019 03:50 CDT3.83P  89.6P  0.00P           
06/26/2019 03:55 CDT3.82P  87.0P  0.00P           
06/26/2019 04:00 CDT3.81P  84.4P  0.00P  437P  26.5P  0.47P  
06/26/2019 04:05 CDT3.82P  87.0P  0.00P           
06/26/2019 04:10 CDT3.81P  84.4P  0.00P           
06/26/2019 04:15 CDT3.82P  87.0P  0.00P  438P  26.5P     
06/26/2019 04:20 CDT3.81P  84.4P  0.00P           
06/26/2019 04:25 CDT3.82P  87.0P  0.00P           
06/26/2019 04:30 CDT3.82P  87.0P  0.00P  438P  26.4P     
06/26/2019 04:35 CDT3.82P  87.0P  0.00P           
06/26/2019 04:40 CDT3.82P  87.0P  0.00P           
06/26/2019 04:45 CDT3.81P  84.4P  0.00P  438P  26.4P     

Explanation
  P  Provisional data subject to revision.